Aviation Digital Data Service (ADDS)

Output produced by METARs form (0004 UTC 26 June 2019)
found at http://aviationweather.gov/metar/data/
 
KSHV 252356Z 15005KT 10SM FEW030 SCT160 BKN260 27/22 A3000 RMK AO2 SLP155 T02720222 10306 20244 50000
KSHV 252320Z 2600/2624 19005KT P6SM BKN100 
     FM261400 18007KT P6SM OVC250